Time;durP1;ratioP1;P1;durP2;ratioP2;P2;SDS_P1;SDS_P2;PMS_P1;PMS_P2;Temp;Humidity;BMP_temperature;BMP_pressure;BME280_temperature;BME280_humidity;BME280_pressure;Samples;Min_cycle;Max_cycle;Signal;HPM_P1;HPM_P2
2021/07/25 00:02:27;;;;;;;11.15;9.93;;;;;;;21.79;56.01;100459.23;1657452;84;21066;-71
2021/07/25 00:04:54;;;;;;;11.10;9.50;;;;;;;21.77;55.94;100457.33;1676895;84;21131;-72
2021/07/25 00:07:20;;;;;;;10.53;9.43;;;;;;;21.77;55.92;100457.33;1675335;84;21110;-72
2021/07/25 00:09:46;;;;;;;12.37;9.18;;;;;;;21.73;55.94;100461.09;1678664;84;21025;-72
2021/07/25 00:12:13;;;;;;;9.88;8.78;;;;;;;21.69;56.00;100454.55;1653994;84;21163;-72
2021/07/25 00:14:39;;;;;;;;;;;;;;;21.69;56.09;100457.81;1607228;88;21173;-72
2021/07/25 00:17:05;;;;;;;10.48;9.55;;;;;;;21.65;56.26;100459.42;1568967;89;20170;-71
2021/07/25 00:19:33;;;;;;;13.72;9.18;;;;;;;21.51;56.59;100459.85;1600265;88;21682;-72
2021/07/25 00:21:59;;;;;;;10.75;9.85;;;;;;;21.47;56.90;100457.89;1584181;89;21555;-72
2021/07/25 00:24:31;;;;;;;13.13;10.40;;;;;;;21.49;56.86;100463.36;1607771;88;21153;-72
2021/07/25 00:26:56;;;;;;;13.80;9.70;;;;;;;21.52;56.68;100457.41;1643604;85;21134;-71
2021/07/25 00:29:22;;;;;;;10.15;9.05;;;;;;;21.55;56.60;100456.09;1653706;85;21565;-71
2021/07/25 00:31:49;;;;;;;11.03;10.00;;;;;;;21.57;56.36;100456.64;1647939;85;21630;-73
2021/07/25 00:34:15;;;;;;;10.65;9.10;;;;;;;21.57;56.34;100452.03;1655668;84;22265;-72
2021/07/25 00:36:40;;;;;;;;;;;;;;;21.54;56.29;100459.31;1708587;82;21170;-71
2021/07/25 00:39:10;;;;;;;9.55;8.65;;;;;;;21.51;56.40;100458.50;1687056;84;20541;-72
2021/07/25 00:41:34;;;;;;;10.23;9.43;;;;;;;21.45;56.70;100453.27;1652517;85;21595;-72
2021/07/25 00:44:00;;;;;;;10.25;9.38;;;;;;;21.42;56.86;100454.59;1655085;85;21174;-70
2021/07/25 00:46:26;;;;;;;;;;;;;;;21.36;56.84;100455.59;1642512;84;21173;-71
2021/07/25 00:48:55;;;;;;;12.47;10.00;;;;;;;21.31;56.95;100456.38;1654926;85;20474;-72
2021/07/25 00:51:23;;;;;;;11.48;9.90;;;;;;;21.22;57.15;100461.17;1650267;85;21136;-73
2021/07/25 00:53:50;;;;;;;12.73;9.88;;;;;;;21.21;57.32;100461.71;1651634;85;21562;-72
2021/07/25 00:56:17;;;;;;;10.98;9.80;;;;;;;21.18;57.39;100465.73;1636131;85;21125;-72
2021/07/25 00:58:45;;;;;;;11.18;10.15;;;;;;;21.17;57.43;100460.05;1636542;85;21168;-72
2021/07/25 01:01:13;;;;;;;11.57;10.20;;;;;;;21.19;57.60;100466.03;1627215;85;21096;-71
2021/07/25 01:04:05;;;;;;;9.73;8.83;;;;;;;21.15;57.57;100466.27;1638275;85;21018;-71
2021/07/25 01:07:25;;;;;;;15.50;9.90;;;;;;;21.12;57.65;100464.05;1617156;86;21086;-71
2021/07/25 01:10:13;;;;;;;10.78;9.53;;;;;;;21.18;57.57;100458.95;1615295;86;21098;-71
2021/07/25 01:13:01;;;;;;;10.25;9.38;;;;;;;21.12;57.71;100470.02;1654303;85;21632;-72
2021/07/25 01:15:31;;;;;;;10.70;9.78;;;;;;;21.00;58.06;100472.85;1617497;86;21099;-72
2021/07/25 01:18:00;;;;;;;12.95;10.70;;;;;;;20.85;58.41;100468.63;1643339;85;21745;-71
2021/07/25 01:20:29;;;;;;;12.65;9.68;;;;;;;20.80;58.61;100470.75;1650237;85;21070;-71
2021/07/25 01:22:57;;;;;;;11.38;10.38;;;;;;;20.75;58.72;100471.49;1640828;85;21105;-70
2021/07/25 01:25:25;;;;;;;11.35;10.35;;;;;;;20.70;58.84;100472.81;1636003;85;21090;-73
2021/07/25 01:28:09;;;;;;;12.15;10.68;;;;;;;20.61;59.16;100470.25;1639767;85;21557;-72
2021/07/25 01:30:40;;;;;;;10.78;9.78;;;;;;;20.51;59.60;100473.63;1648397;85;21673;-72
2021/07/25 01:33:13;;;;;;;9.93;9.13;;;;;;;20.49;59.97;100476.28;1647365;85;21077;-71
2021/07/25 01:35:41;;;;;;;10.78;9.88;;;;;;;20.54;59.94;100471.75;1637758;85;21132;-72
2021/07/25 01:38:08;;;;;;;12.70;9.55;;;;;;;20.66;59.68;100476.25;1612610;87;21144;-71
2021/07/25 01:40:36;;;;;;;16.60;9.83;;;;;;;20.76;59.32;100469.62;1606794;88;21058;-71
2021/07/25 01:43:06;;;;;;;11.57;10.50;;;;;;;20.83;58.97;100468.06;1643503;85;21062;-72
2021/07/25 01:45:32;;;;;;;10.55;9.68;;;;;;;20.81;58.84;100468.31;1629578;86;21083;-72
2021/07/25 01:47:58;;;;;;;13.18;10.78;;;;;;;20.79;58.82;100466.39;1626941;87;21680;-80
2021/07/25 01:50:26;;;;;;;;;;;;;;;20.72;59.02;100467.95;1620538;87;21038;-71
2021/07/25 01:52:54;;;;;;;11.97;10.60;;;;;;;20.75;58.91;100468.78;1595306;88;20218;-71
2021/07/25 01:55:20;;;;;;;13.53;10.85;;;;;;;20.80;58.89;100470.20;1606591;88;21022;-72
2021/07/25 01:57:46;;;;;;;12.15;9.40;;;;;;;20.85;58.82;100470.82;1593043;89;22438;-71
2021/07/25 02:00:13;;;;;;;;;;;;;;;20.92;58.72;100474.13;1612536;85;21244;-72
2021/07/25 02:02:39;;;;;;;11.75;10.55;;;;;;;20.90;58.79;100476.27;1693280;82;20456;-72
2021/07/25 02:05:05;;;;;;;11.73;9.95;;;;;;;20.79;59.13;100475.88;1708778;82;21697;-72
2021/07/25 02:07:33;;;;;;;10.65;9.60;;;;;;;20.77;59.38;100480.18;1694237;82;21113;-71
2021/07/25 02:09:59;;;;;;;12.28;10.80;;;;;;;20.74;59.43;100483.95;1670264;84;21040;-72
2021/07/25 02:12:25;;;;;;;;;;;;;;;20.68;59.58;100484.94;1672180;84;21085;-72
2021/07/25 02:14:52;;;;;;;11.65;10.58;;;;;;;20.57;60.01;100478.57;1646676;86;20223;-70
2021/07/25 02:17:18;;;;;;;12.18;11.03;;;;;;;20.38;60.43;100484.28;1650572;86;21076;-71
2021/07/25 02:19:44;;;;;;;;;;;;;;;20.28;60.85;100478.70;1654087;85;22085;-73
2021/07/25 02:22:11;;;;;;;11.80;10.80;;;;;;;20.21;61.10;100486.17;1669055;84;20160;-71
2021/07/25 02:24:39;;;;;;;12.82;10.60;;;;;;;20.09;61.48;100493.59;1655017;85;21056;-70
2021/07/25 02:27:06;;;;;;;14.13;10.95;;;;;;;20.00;61.80;100488.61;1665904;84;21154;-71
2021/07/25 02:29:33;;;;;;;11.53;10.53;;;;;;;19.95;61.86;100497.98;1670813;84;21046;-71
2021/07/25 02:31:59;;;;;;;;;;;;;;;19.97;62.16;100499.91;1650560;84;21083;-71
2021/07/25 02:34:26;;;;;;;14.10;10.98;;;;;;;20.05;62.82;100500.56;1640085;85;20230;-72
2021/07/25 02:36:54;;;;;;;10.08;9.25;;;;;;;20.10;62.56;100501.47;1698665;83;21088;-71
2021/07/25 02:39:19;;;;;;;;;;;;;;;20.21;62.32;100500.55;1708385;82;21073;-71
2021/07/25 02:41:45;;;;;;;11.30;10.20;;;;;;;20.32;62.06;100496.08;1696972;83;20194;-72
2021/07/25 02:44:11;;;;;;;;;;;;;;;20.36;62.29;100497.25;1707765;82;21121;-72
2021/07/25 02:46:38;;;;;;;10.93;9.38;;;;;;;20.51;61.64;100496.64;1655064;85;20493;-73
2021/07/25 02:49:04;;;;;;;;;;;;;;;20.55;61.71;100501.83;1654398;84;21071;-71
2021/07/25 02:51:30;;;;;;;11.40;10.23;;;;;;;20.65;61.48;100506.59;1659187;84;20125;-72
2021/07/25 02:53:59;;;;;;;11.85;10.38;;;;;;;20.68;61.49;100501.19;1624340;86;21696;-72
2021/07/25 02:56:25;;;;;;;;;;;;;;;20.73;61.71;100500.72;1633994;86;21159;-71
2021/07/25 02:58:51;;;;;;;12.40;10.55;;;;;;;20.65;61.55;100471.38;1620617;86;20140;-72
2021/07/25 03:01:18;;;;;;;12.05;10.95;;;;;;;20.88;61.37;100508.77;1612739;86;21071;-72
2021/07/25 03:03:44;;;;;;;13.00;9.65;;;;;;;20.99;61.20;100507.27;1602122;88;21109;-72
2021/07/25 03:06:13;;;;;;;10.95;10.03;;;;;;;21.20;60.93;100511.02;1630548;86;21108;-71
2021/07/25 03:08:44;;;;;;;11.90;10.58;;;;;;;21.62;60.03;100508.20;1618593;86;21129;-72
2021/07/25 03:11:12;;;;;;;10.85;9.38;;;;;;;22.13;58.18;100507.78;1654445;85;21078;-72
2021/07/25 03:13:39;;;;;;;11.30;10.30;;;;;;;22.66;56.74;100507.84;1656211;85;21072;-72
2021/07/25 03:16:09;;;;;;;12.15;10.20;;;;;;;23.09;55.20;100508.58;1656513;85;21076;-72
2021/07/25 03:18:35;;;;;;;11.03;9.55;;;;;;;23.45;54.06;100514.09;1654740;85;21140;-73
2021/07/25 03:21:03;;;;;;;11.10;10.10;;;;;;;23.88;52.88;100513.33;1654287;85;21080;-71
2021/07/25 03:23:32;;;;;;;10.85;9.55;;;;;;;24.31;51.65;100515.19;1644196;86;21206;-72
2021/07/25 03:26:01;;;;;;;10.60;9.73;;;;;;;24.76;50.19;100509.91;1627960;86;21195;-72
2021/07/25 03:28:27;;;;;;;10.15;9.15;;;;;;;25.05;49.33;100514.11;1618464;87;21062;-72
2021/07/25 03:30:54;;;;;;;10.10;9.13;;;;;;;25.37;48.54;100521.05;1622604;86;21198;-72
2021/07/25 03:33:21;;;;;;;9.83;8.88;;;;;;;25.77;47.72;100510.95;1627666;86;21058;-72
2021/07/25 03:35:47;;;;;;;9.83;9.15;;;;;;;26.18;46.84;100519.62;1622257;87;21081;-72
2021/07/25 03:38:14;;;;;;;9.05;8.28;;;;;;;26.59;45.73;100512.88;1667202;85;21153;-73
2021/07/25 03:40:42;;;;;;;9.75;8.95;;;;;;;26.97;44.77;100511.08;1648987;85;21530;-71
2021/07/25 03:43:10;;;;;;;11.90;9.20;;;;;;;27.29;44.31;100521.05;1654855;85;21018;-72
2021/07/25 03:45:46;;;;;;;11.25;9.15;;;;;;;27.60;42.93;100527.45;1671710;84;21104;-72
2021/07/25 03:48:12;;;;;;;10.95;8.80;;;;;;;27.94;42.14;100525.81;1663715;84;21939;-71
2021/07/25 03:50:42;;;;;;;11.48;10.28;;;;;;;28.06;41.63;100528.86;1666284;85;21068;-71
2021/07/25 03:53:09;;;;;;;11.65;9.98;;;;;;;27.95;40.60;100541.12;1670593;84;21105;-72
2021/07/25 03:55:37;;;;;;;11.85;10.80;;;;;;;27.66;40.97;100538.00;1668781;84;21789;-72
2021/07/25 03:58:04;;;;;;;13.05;11.20;;;;;;;27.31;41.71;100534.72;1637724;85;21590;-71
2021/07/25 04:00:30;;;;;;;11.48;10.23;;;;;;;27.21;42.14;100529.34;1627790;85;21577;-71
2021/07/25 04:02:57;;;;;;;9.93;8.90;;;;;;;27.27;42.14;100537.76;1646251;85;21741;-71
2021/07/25 04:05:24;;;;;;;11.80;9.80;;;;;;;27.54;41.89;100532.19;1668556;84;21655;-72
2021/07/25 04:07:50;;;;;;;10.55;9.20;;;;;;;27.86;40.98;100534.66;1633197;85;21137;-73
2021/07/25 04:10:17;;;;;;;9.50;8.58;;;;;;;28.08;40.62;100532.68;1638388;86;21130;-72
2021/07/25 04:12:44;;;;;;;11.00;10.03;;;;;;;28.36;40.14;100533.53;1677884;84;21066;-72
2021/07/25 04:15:11;;;;;;;9.48;8.68;;;;;;;28.66;39.58;100528.04;1671374;84;21020;-72
2021/07/25 04:17:38;;;;;;;9.55;8.65;;;;;;;28.93;39.41;100530.50;1673583;84;21065;-72
2021/07/25 04:20:08;;;;;;;10.43;9.38;;;;;;;29.26;38.78;100532.55;1662290;84;21065;-72
2021/07/25 04:22:38;;;;;;;12.63;9.95;;;;;;;29.54;37.99;100533.84;1679506;84;21153;-72
2021/07/25 04:25:06;;;;;;;12.20;9.18;;;;;;;29.74;37.48;100538.60;1677283;84;21450;-73
2021/07/25 04:27:33;;;;;;;9.95;8.83;;;;;;;29.81;37.61;100538.98;1675090;84;21125;-71
2021/07/25 04:30:00;;;;;;;9.13;8.33;;;;;;;29.93;37.37;100539.20;1634341;85;21148;-73
2021/07/25 04:32:27;;;;;;;12.13;10.58;;;;;;;30.07;37.12;100539.95;1637048;86;21120;-74
2021/07/25 04:34:54;;;;;;;11.48;9.18;;;;;;;30.16;37.21;100537.25;1642434;86;21176;-73
2021/07/25 04:37:25;;;;;;;11.25;9.95;;;;;;;30.27;37.00;100537.23;1671101;85;21208;-71
2021/07/25 04:39:52;;;;;;;11.55;8.65;;;;;;;30.18;37.05;100538.32;1649772;86;21226;-72
2021/07/25 04:42:26;;;;;;;9.70;9.00;;;;;;;29.95;36.97;100539.73;1671109;85;21021;-73
2021/07/25 04:45:03;;;;;;;10.13;9.20;;;;;;;29.82;37.19;100540.59;1679423;84;21093;-73
2021/07/25 04:47:56;;;;;;;10.15;9.23;;;;;;;29.93;37.47;100541.95;1674453;84;21021;-73
2021/07/25 04:50:31;;;;;;;11.60;10.60;;;;;;;30.14;37.17;100545.55;1682974;83;21089;-72
2021/07/25 04:53:01;;;;;;;10.67;9.57;;;;;;;30.47;36.57;100552.37;1689179;84;21164;-72
2021/07/25 04:55:33;;;;;;;11.48;9.85;;;;;;;30.80;36.26;100549.27;1682107;83;21065;-73
2021/07/25 04:58:06;;;;;;;13.10;9.15;;;;;;;31.01;36.03;100547.31;1689230;84;21102;-72
2021/07/25 05:00:42;;;;;;;8.73;8.08;;;;;;;31.09;35.54;100546.51;1684352;83;21194;-72
2021/07/25 05:03:10;;;;;;;9.73;8.93;;;;;;;31.12;34.58;100548.63;1682821;84;21067;-72
2021/07/25 05:05:37;;;;;;;10.08;9.13;;;;;;;31.06;35.18;100548.52;1677044;83;21015;-72
2021/07/25 05:08:06;;;;;;;11.45;10.28;;;;;;;30.98;35.34;100552.08;1660201;85;21066;-73
2021/07/25 05:10:37;;;;;;;16.00;10.13;;;;;;;30.83;36.08;100551.35;1687847;82;21153;-72
2021/07/25 05:13:14;;;;;;;11.97;10.45;;;;;;;30.69;36.01;100557.56;1686148;84;21055;-72
2021/07/25 05:15:45;;;;;;;11.57;10.30;;;;;;;30.61;36.28;100554.20;1654998;84;21034;-73
2021/07/25 05:18:31;;;;;;;11.48;10.23;;;;;;;30.61;36.42;100555.03;1682932;83;21068;-73
2021/07/25 05:21:21;;;;;;;17.02;11.75;;;;;;;30.74;36.18;100557.42;1698864;84;22128;-73
2021/07/25 05:23:56;;;;;;;23.90;12.35;;;;;;;30.80;35.87;100563.02;1684650;82;21508;-74
2021/07/25 05:26:26;;;;;;;26.77;14.70;;;;;;;30.71;35.95;100562.75;1697809;82;21108;-73
2021/07/25 05:28:57;;;;;;;35.73;15.70;;;;;;;30.64;36.26;100565.38;1689272;82;21124;-73
2021/07/25 05:31:34;;;;;;;38.00;16.97;;;;;;;30.54;36.40;100564.88;1695038;83;21605;-73
2021/07/25 05:34:02;;;;;;;32.48;16.57;;;;;;;30.41;36.76;100555.02;1695174;83;21413;-73
2021/07/25 05:36:30;;;;;;;43.50;19.30;;;;;;;30.12;37.26;100556.88;1694153;82;21091;-73
2021/07/25 05:38:57;;;;;;;40.58;17.15;;;;;;;29.94;37.19;100557.33;1700717;82;21014;-72
2021/07/25 05:41:23;;;;;;;26.95;14.47;;;;;;;29.80;37.78;100563.45;1694261;83;21049;-72
2021/07/25 05:43:53;;;;;;;26.85;14.20;;;;;;;29.64;38.00;100558.86;1702426;84;21055;-74
2021/07/25 05:46:20;;;;;;;20.88;14.50;;;;;;;29.41;38.44;100557.47;1678180;84;21165;-76
2021/07/25 05:48:46;;;;;;;23.75;14.03;;;;;;;29.24;38.60;100562.24;1668028;84;21162;-74
2021/07/25 05:51:13;;;;;;;20.30;13.25;;;;;;;28.93;38.95;100556.56;1678781;84;21624;-75
2021/07/25 05:53:39;;;;;;;16.52;12.93;;;;;;;28.74;39.50;100562.16;1671614;85;21069;-74
2021/07/25 05:56:05;;;;;;;20.32;12.58;;;;;;;28.69;39.78;100568.58;1675186;84;21120;-74
2021/07/25 05:58:33;;;;;;;23.18;13.30;;;;;;;28.86;39.57;100563.84;1685019;84;21062;-74
2021/07/25 06:00:59;;;;;;;18.85;12.55;;;;;;;28.94;39.64;100569.17;1692782;83;21065;-74
2021/07/25 06:03:26;;;;;;;24.65;14.38;;;;;;;28.67;39.62;100534.33;1685542;83;21165;-75
2021/07/25 06:05:52;;;;;;;18.85;14.15;;;;;;;28.56;39.54;100564.44;1687440;83;21649;-72
2021/07/25 06:08:18;;;;;;;16.35;12.80;;;;;;;28.30;39.96;100566.27;1696987;83;21113;-78
2021/07/25 06:10:44;;;;;;;21.45;13.88;;;;;;;28.21;40.62;100565.34;1697472;83;21097;-74
2021/07/25 06:13:11;;;;;;;18.60;12.93;;;;;;;28.24;40.79;100568.30;1684297;83;21116;-78
2021/07/25 06:15:37;;;;;;;21.70;13.18;;;;;;;28.35;41.00;100564.82;1680365;84;21538;-75
2021/07/25 06:18:06;;;;;;;17.02;12.25;;;;;;;28.54;40.96;100562.83;1682115;84;21111;-73
2021/07/25 06:20:33;;;;;;;19.82;12.13;;;;;;;28.77;40.01;100554.70;1676526;84;21716;-73
2021/07/25 06:23:00;;;;;;;15.78;12.65;;;;;;;29.05;39.41;100556.86;1677239;84;21040;-72
2021/07/25 06:25:31;;;;;;;15.25;11.60;;;;;;;29.36;38.82;100557.58;1682627;84;21065;-76
2021/07/25 06:28:01;;;;;;;11.85;10.60;;;;;;;29.61;38.78;100556.19;1660310;84;21020;-74
2021/07/25 06:30:30;;;;;;;9.18;8.15;;;;;;;29.82;36.84;100557.07;1635605;87;21132;-75
2021/07/25 06:33:06;;;;;;;12.20;9.65;;;;;;;29.77;36.30;100556.65;1647279;85;21045;-74
2021/07/25 06:35:36;;;;;;;15.48;8.93;;;;;;;29.67;36.38;100560.43;1665065;85;21143;-75
2021/07/25 06:38:17;;;;;;;10.10;9.10;;;;;;;29.66;36.49;100557.42;1638443;86;21084;-76
2021/07/25 06:40:48;;;;;;;10.68;8.35;;;;;;;29.89;35.85;100560.20;1641631;86;21629;-74
2021/07/25 06:43:24;;;;;;;14.65;6.78;;;;;;;30.09;36.16;100561.05;1655668;86;22245;-73
2021/07/25 06:45:53;;;;;;;7.67;6.87;;;;;;;30.26;34.97;100558.16;1622190;87;21116;-73
2021/07/25 06:48:27;;;;;;;6.65;6.05;;;;;;;30.27;35.08;100563.34;1676657;85;21546;-75
2021/07/25 06:50:56;;;;;;;10.08;7.03;;;;;;;30.29;34.38;100567.16;1668529;85;21132;-74
2021/07/25 06:53:24;;;;;;;6.97;6.35;;;;;;;30.36;34.39;100570.84;1663205;84;21093;-74
2021/07/25 06:55:53;;;;;;;9.88;5.58;;;;;;;30.34;33.45;100575.28;1676201;84;21080;-74
2021/07/25 06:58:21;;;;;;;6.10;5.70;;;;;;;30.22;33.72;100571.72;1674826;84;21159;-75
2021/07/25 07:00:49;;;;;;;6.60;5.83;;;;;;;30.37;33.75;100579.36;1678465;82;21076;-73
2021/07/25 07:03:20;;;;;;;6.67;6.00;;;;;;;30.60;33.82;100584.23;1700815;83;21153;-73
2021/07/25 07:05:47;;;;;;;6.00;5.53;;;;;;;30.77;32.72;100580.16;1692080;83;21081;-74
2021/07/25 07:08:14;;;;;;;10.88;6.40;;;;;;;30.75;32.01;100585.17;1704310;83;21099;-76
2021/07/25 07:10:44;;;;;;;7.05;6.33;;;;;;;30.65;32.02;100585.47;1711645;82;21537;-74
2021/07/25 07:13:13;;;;;;;6.65;6.03;;;;;;;30.46;33.05;100586.52;1666108;85;22173;-75
2021/07/25 07:15:44;;;;;;;6.62;6.05;;;;;;;30.21;33.65;100583.83;1673535;84;21029;-74
2021/07/25 07:18:10;;;;;;;7.55;6.00;;;;;;;29.91;34.22;100588.17;1665459;84;21130;-73
2021/07/25 07:20:38;;;;;;;8.43;6.78;;;;;;;29.61;34.84;100586.94;1675170;84;21164;-73
2021/07/25 07:23:12;;;;;;;6.33;5.83;;;;;;;29.54;34.40;100597.00;1688045;83;21035;-74
2021/07/25 07:25:43;;;;;;;7.83;7.22;;;;;;;29.29;34.21;100595.08;1686488;82;21112;-74
2021/07/25 07:28:11;;;;;;;12.60;7.78;;;;;;;28.96;35.40;100587.52;1707224;83;21566;-73
2021/07/25 07:30:39;;;;;;;18.90;7.15;;;;;;;28.86;36.23;100588.54;1703464;83;21117;-73
2021/07/25 07:33:13;;;;;;;9.03;8.15;;;;;;;28.92;36.43;100579.64;1707062;83;21096;-75
2021/07/25 07:35:40;;;;;;;8.80;6.97;;;;;;;28.98;36.85;100579.78;1703199;82;21077;-74
2021/07/25 07:38:09;;;;;;;9.33;6.22;;;;;;;29.17;36.31;100580.25;1708216;82;21568;-73
2021/07/25 07:40:38;;;;;;;7.67;5.97;;;;;;;29.22;36.09;100577.41;1702077;83;21058;-74
2021/07/25 07:43:06;;;;;;;6.53;5.92;;;;;;;29.26;34.72;100576.47;1697754;83;21072;-75
2021/07/25 07:45:37;;;;;;;6.03;5.53;;;;;;;29.25;34.52;100583.63;1689776;83;21199;-74
2021/07/25 07:48:08;;;;;;;6.50;5.90;;;;;;;29.15;34.45;100583.30;1673492;84;21080;-75
2021/07/25 07:50:34;;;;;;;4.78;4.37;;;;;;;29.02;34.29;100585.48;1671260;85;21072;-75
2021/07/25 07:53:01;;;;;;;5.85;5.10;;;;;;;28.96;34.30;100580.66;1675905;84;21082;-73
2021/07/25 07:55:27;;;;;;;6.78;4.83;;;;;;;28.87;34.61;100584.66;1681908;84;21579;-75
2021/07/25 07:57:53;;;;;;;6.60;4.75;;;;;;;28.84;34.64;100594.05;1670965;84;21041;-75
2021/07/25 08:00:20;;;;;;;5.78;5.28;;;;;;;28.91;34.40;100587.08;1677566;83;21029;-74
2021/07/25 08:02:47;;;;;;;5.75;4.62;;;;;;;28.97;34.55;100593.80;1703063;83;21045;-74
2021/07/25 08:05:17;;;;;;;5.62;4.72;;;;;;;29.04;34.12;100596.95;1707046;83;21033;-73
2021/07/25 08:07:43;;;;;;;11.22;4.75;;;;;;;29.08;33.55;100589.73;1696009;83;21101;-74
2021/07/25 08:10:12;;;;;;;3.70;3.50;;;;;;;29.01;32.68;100586.58;1708099;83;21591;-75
2021/07/25 08:12:41;;;;;;;4.67;4.28;;;;;;;28.89;32.60;100592.02;1705445;82;21083;-73
2021/07/25 08:15:09;;;;;;;7.50;5.30;;;;;;;28.80;33.34;100598.53;1701850;83;21047;-75
2021/07/25 08:17:35;;;;;;;8.75;5.15;;;;;;;28.68;33.88;100594.93;1704943;83;21084;-74
2021/07/25 08:20:05;;;;;;;6.60;5.37;;;;;;;28.59;34.80;100598.12;1678329;84;21061;-75
2021/07/25 08:22:31;;;;;;;6.37;5.53;;;;;;;28.51;35.01;100597.67;1678063;83;21526;-74
2021/07/25 08:24:58;;;;;;;6.90;5.40;;;;;;;28.50;35.07;100597.43;1660944;85;21140;-74
2021/07/25 08:27:24;;;;;;;10.65;4.80;;;;;;;28.52;34.48;100596.59;1700960;83;21136;-75
2021/07/25 08:29:50;;;;;;;5.22;4.30;;;;;;;28.48;34.14;100596.92;1699326;84;21070;-73
2021/07/25 08:32:16;;;;;;;5.62;5.03;;;;;;;28.41;34.38;100593.76;1695799;83;21050;-74
2021/07/25 08:34:42;;;;;;;7.83;5.67;;;;;;;28.37;34.61;100596.02;1701584;83;21133;-74
2021/07/25 08:37:10;;;;;;;7.22;4.92;;;;;;;28.32;34.62;100595.56;1690451;83;21205;-73
2021/07/25 08:39:37;;;;;;;12.15;6.25;;;;;;;28.22;34.87;100602.58;1690994;83;21706;-73
2021/07/25 08:42:08;;;;;;;10.13;6.12;;;;;;;28.17;35.63;100593.09;1689715;83;20981;-74
2021/07/25 08:44:54;;;;;;;7.90;5.97;;;;;;;28.11;35.28;100596.48;1647078;85;21074;-75
2021/07/25 08:47:33;;;;;;;6.03;5.42;;;;;;;28.12;34.66;100586.59;1659130;85;21542;-74
2021/07/25 08:50:15;;;;;;;6.17;5.67;;;;;;;28.21;34.54;100596.86;1646833;85;21537;-74
2021/07/25 08:52:46;;;;;;;5.08;4.42;;;;;;;28.21;34.76;100591.38;1653626;85;21024;-74
2021/07/25 08:55:16;;;;;;;6.62;5.22;;;;;;;28.26;34.70;100590.73;1670160;85;21088;-73
2021/07/25 08:57:47;;;;;;;7.42;5.62;;;;;;;28.29;33.58;100589.30;1642808;85;21713;-74
2021/07/25 09:00:17;;;;;;;4.95;4.53;;;;;;;28.35;33.87;100584.01;1634666;85;21714;-74
2021/07/25 09:02:44;;;;;;;6.42;5.00;;;;;;;28.49;34.38;100586.20;1642729;86;21624;-73
2021/07/25 09:05:11;;;;;;;5.42;4.92;;;;;;;28.57;34.41;100586.08;1646726;86;21097;-74
2021/07/25 09:07:41;;;;;;;7.62;5.40;;;;;;;28.67;33.93;100585.90;1629578;86;21123;-73
2021/07/25 09:10:18;;;;;;;7.50;6.03;;;;;;;28.74;34.04;100590.97;1637193;86;21569;-73
2021/07/25 09:12:46;;;;;;;6.50;5.90;;;;;;;28.81;33.70;100595.49;1638907;86;21057;-73
2021/07/25 09:15:17;;;;;;;5.53;4.65;;;;;;;28.78;33.68;100593.34;1672377;85;21033;-75
2021/07/25 09:17:44;;;;;;;5.85;5.45;;;;;;;28.72;33.91;100600.86;1666828;84;21165;-73
2021/07/25 09:20:16;;;;;;;6.30;5.60;;;;;;;28.73;34.03;100601.70;1674403;85;21141;-74
2021/07/25 09:22:54;;;;;;;6.20;5.70;;;;;;;28.69;34.72;100606.17;1677408;84;21092;-73
2021/07/25 09:25:28;;;;;;;6.55;5.67;;;;;;;28.60;34.97;100600.56;1672516;85;22998;-73
2021/07/25 09:28:00;;;;;;;6.92;6.28;;;;;;;28.46;35.31;100601.89;1671850;84;21062;-73
2021/07/25 09:30:30;;;;;;;6.55;6.12;;;;;;;28.42;35.26;100596.73;1668264;85;21474;-73
2021/07/25 09:32:57;;;;;;;6.97;6.42;;;;;;;28.48;34.79;100601.03;1649884;85;21138;-75
2021/07/25 09:35:33;;;;;;;9.18;6.10;;;;;;;28.46;35.09;100601.89;1621120;88;21160;-75
2021/07/25 09:38:06;;;;;;;;;;;;;;;28.45;35.21;100598.89;1614311;87;21079;-72
2021/07/25 09:40:37;;;;;;;7.35;6.12;;;;;;;28.47;35.16;100602.70;1677236;85;20144;-74
2021/07/25 09:43:18;;;;;;;6.37;5.83;;;;;;;28.51;35.18;100600.41;1669656;84;21081;-74
2021/07/25 09:45:59;;;;;;;8.78;6.20;;;;;;;28.50;34.32;100601.55;1687736;83;21176;-73
2021/07/25 09:48:34;;;;;;;4.97;4.42;;;;;;;28.39;34.48;100600.10;1682144;82;21169;-72
2021/07/25 09:51:20;;;;;;;7.72;5.35;;;;;;;28.37;34.18;100609.19;1702596;83;21022;-73
2021/07/25 09:53:53;;;;;;;5.20;4.70;;;;;;;28.41;33.57;100608.84;1667778;85;21080;-73
2021/07/25 09:56:27;;;;;;;5.60;5.10;;;;;;;28.50;33.22;100599.34;1688360;83;21126;-75
2021/07/25 09:58:55;;;;;;;5.47;5.10;;;;;;;28.51;33.36;100591.38;1671241;84;21097;-75
2021/07/25 10:01:40;;;;;;;6.37;4.60;;;;;;;28.37;33.42;100605.61;1671569;84;21042;-73
2021/07/25 10:04:19;;;;;;;5.53;5.12;;;;;;;28.31;33.23;100605.72;1644141;85;21155;-73
2021/07/25 10:06:54;;;;;;;5.30;4.90;;;;;;;28.23;33.62;100602.84;1652958;85;21113;-73
2021/07/25 10:09:23;;;;;;;6.47;4.80;;;;;;;28.21;33.71;100604.52;1651999;85;20982;-73
2021/07/25 10:12:00;;;;;;;5.85;5.30;;;;;;;28.21;34.02;100603.14;1653782;85;21071;-73
2021/07/25 10:14:29;;;;;;;5.90;5.33;;;;;;;28.21;34.33;100605.08;1629679;86;21101;-73
2021/07/25 10:17:01;;;;;;;8.68;6.65;;;;;;;28.18;34.43;100604.30;1642374;85;21579;-74
2021/07/25 10:19:42;;;;;;;10.63;6.45;;;;;;;28.16;34.50;100601.85;1630121;85;21089;-74
2021/07/25 10:22:13;;;;;;;5.90;5.50;;;;;;;28.15;34.27;100591.45;1629605;85;21087;-73
2021/07/25 10:24:45;;;;;;;5.62;5.15;;;;;;;28.14;33.95;100591.22;1644680;85;21116;-75
2021/07/25 10:27:16;;;;;;;5.87;5.37;;;;;;;28.17;34.39;100598.02;1661547;84;21597;-74
2021/07/25 10:29:43;;;;;;;5.92;5.53;;;;;;;28.22;34.02;100601.20;1638098;85;21672;-74
2021/07/25 10:32:11;;;;;;;6.05;5.65;;;;;;;28.22;34.10;100595.73;1654757;86;21070;-73
2021/07/25 10:34:39;;;;;;;5.72;5.30;;;;;;;28.15;34.45;100592.83;1664117;84;21117;-73
2021/07/25 10:37:06;;;;;;;6.30;5.17;;;;;;;28.08;34.29;100600.61;1689325;83;21081;-73
2021/07/25 10:39:36;;;;;;;6.72;6.10;;;;;;;28.05;34.19;100593.55;1668205;84;21093;-74
2021/07/25 10:42:04;;;;;;;14.78;7.22;;;;;;;28.03;34.21;100593.88;1685253;83;21065;-73
2021/07/25 10:44:31;;;;;;;10.43;6.55;;;;;;;28.07;33.77;100606.42;1680530;83;21459;-73
2021/07/25 10:47:32;;;;;;;11.80;7.55;;;;;;;28.03;33.77;100596.61;1705003;82;21598;-73
2021/07/25 10:50:08;;;;;;;9.55;6.55;;;;;;;27.95;33.41;100605.49;1701235;82;21045;-74
2021/07/25 10:52:55;;;;;;;6.92;5.65;;;;;;;27.79;33.94;100609.58;1702720;83;21343;-73
2021/07/25 10:55:43;;;;;;;6.42;5.33;;;;;;;27.75;33.69;100606.61;1703802;83;21071;-73
2021/07/25 10:58:21;;;;;;;7.00;5.78;;;;;;;27.80;33.78;100609.25;1704855;82;21058;-72
2021/07/25 11:00:56;;;;;;;6.35;5.78;;;;;;;27.91;33.70;100598.98;1707834;82;21619;-74
2021/07/25 11:03:35;;;;;;;10.63;5.87;;;;;;;28.01;33.41;100607.06;1665628;85;21038;-74
2021/07/25 11:06:13;;;;;;;8.58;5.10;;;;;;;28.03;33.05;100602.09;1667990;85;21070;-75
2021/07/25 11:08:46;;;;;;;5.05;4.58;;;;;;;27.61;32.63;100525.75;1657508;84;21055;-73
2021/07/25 11:11:39;;;;;;;6.05;5.62;;;;;;;28.14;33.12;100598.60;1645973;85;21092;-73
2021/07/25 11:14:07;;;;;;;8.23;5.30;;;;;;;28.20;33.30;100599.33;1668816;85;21160;-74
2021/07/25 11:16:39;;;;;;;6.00;5.42;;;;;;;28.27;33.20;100595.64;1659575;84;21176;-73
2021/07/25 11:19:19;;;;;;;8.60;5.80;;;;;;;28.34;33.35;100603.73;1660352;84;21120;-75
2021/07/25 11:21:55;;;;;;;7.83;5.42;;;;;;;28.43;33.42;100592.89;1672165;84;21069;-73
2021/07/25 11:24:26;;;;;;;5.87;5.30;;;;;;;28.51;33.14;100583.96;1675556;83;21198;-78
2021/07/25 11:26:56;;;;;;;6.17;5.42;;;;;;;28.60;33.02;100586.85;1682822;83;21057;-73
2021/07/25 11:29:36;;;;;;;4.33;4.03;;;;;;;28.66;33.32;100581.52;1680393;83;21147;-73
2021/07/25 11:32:07;;;;;;;5.45;4.53;;;;;;;28.66;32.88;100580.14;1677453;83;21099;-75
2021/07/25 11:34:36;;;;;;;5.20;4.80;;;;;;;28.62;33.10;100572.84;1684925;84;21179;-76
2021/07/25 11:37:38;;;;;;;6.70;4.33;;;;;;;28.51;33.15;100581.78;1674451;84;21120;-75